Uragano ALBERTO 2000: traiettoria, intensità e storia
25 ago 2000, 06:00:00
3 ago 2000, 18:00:00 – 25 ago 2000, 06:00:00
Traiettoria storica
Segui l’evoluzione e il movimento di Uragano ALBERTO nel 2000, con il percorso completo registrato, venti massimi sostenuti di 110 nodi, pressione centrale minima e cronologia dettagliata.
| Data | Ora | Tipo | Ventokm/h | PressionehPa |
|---|---|---|---|---|
| 25 ago | 06:00 | EXCiclone extratropicale | 55 | 994 |
| 25 ago | 03:00 | EXCiclone extratropicale | 55 | 992 |
| 25 ago | 00:00 | EXCiclone extratropicale | 55 | 990 |
| 24 ago | 21:00 | EXCiclone extratropicale | 55 | 991 |
| 24 ago | 18:00 | EXCiclone extratropicale | 55 | 992 |
| 24 ago | 15:00 | EXCiclone extratropicale | 60 | 991 |
| 24 ago | 12:00 | EXCiclone extratropicale | 65 | 990 |
| 24 ago | 09:00 | EXCiclone extratropicale | 65 | 991 |
| 24 ago | 06:00 | EXCiclone extratropicale | 65 | 992 |
| 24 ago | 03:00 | EXCiclone extratropicale | 70 | 994 |
| 24 ago | 00:00 | EXCiclone extratropicale | 75 | 995 |
| 23 ago | 21:00 | EXCiclone extratropicale | 80 | 996 |
| 23 ago | 18:00 | EXCiclone extratropicale | 85 | 997 |
| 23 ago | 15:00 | EXCiclone extratropicale | 85 | 997 |
| 23 ago | 12:00 | EXCiclone extratropicale | 85 | 997 |
| 23 ago | 09:00 | TSTempesta tropicale | 95 | 996 |
| 23 ago | 06:00 | TSTempesta tropicale | 100 | 994 |
| 23 ago | 03:00 | TSTempesta tropicale | 110 | 991 |
| 23 ago | 00:00 | HUragano | 120 | 987 |
| 22 ago | 21:00 | HUragano | 120 | 986 |
| 22 ago | 18:00 | HUragano | 120 | 985 |
| 22 ago | 15:00 | HUragano | 125 | 984 |
| 22 ago | 12:00 | HUragano | 130 | 983 |
| 22 ago | 09:00 | HUragano | 135 | 982 |
| 22 ago | 06:00 | HUragano | 140 | 981 |
| 22 ago | 03:00 | HUragano | 140 | 980 |
| 22 ago | 00:00 | HUragano | 140 | 979 |
| 21 ago | 21:00 | HUragano | 145 | 979 |
| 21 ago | 18:00 | HUragano | 150 | 978 |
| 21 ago | 15:00 | HUragano | 150 | 978 |
| 21 ago | 12:00 | HUragano | 150 | 977 |
| 21 ago | 09:00 | HUragano | 150 | 977 |
| 21 ago | 06:00 | HUragano | 150 | 976 |
| 21 ago | 03:00 | HUragano | 155 | 975 |
| 21 ago | 00:00 | HUragano | 155 | 974 |
| 20 ago | 21:00 | HUragano | 155 | 974 |
| 20 ago | 18:00 | HUragano | 155 | 973 |
| 20 ago | 15:00 | HUragano | 155 | 973 |
| 20 ago | 12:00 | HUragano | 155 | 972 |
| 20 ago | 09:00 | HUragano | 165 | 972 |
| 20 ago | 06:00 | HUragano | 165 | 971 |
| 20 ago | 03:00 | HUragano | 165 | 971 |
| 20 ago | 00:00 | HUragano | 165 | 970 |
| 19 ago | 21:00 | HUragano | 165 | 970 |
| 19 ago | 18:00 | HUragano | 165 | 970 |
| 19 ago | 15:00 | HUragano | 165 | 972 |
| 19 ago | 12:00 | HUragano | 155 | 973 |
| 19 ago | 09:00 | HUragano | 155 | 975 |
| 19 ago | 06:00 | HUragano | 150 | 976 |
| 19 ago | 03:00 | HUragano | 145 | 978 |
| 19 ago | 00:00 | HUragano | 140 | 979 |
| 18 ago | 21:00 | HUragano | 130 | 983 |
| 18 ago | 18:00 | HUragano | 120 | 987 |
| 18 ago | 15:00 | TSTempesta tropicale | 115 | 989 |
| 18 ago | 12:00 | TSTempesta tropicale | 110 | 991 |
| 18 ago | 09:00 | TSTempesta tropicale | 105 | 992 |
| 18 ago | 06:00 | TSTempesta tropicale | 100 | 993 |
| 18 ago | 03:00 | TSTempesta tropicale | 100 | 994 |
| 18 ago | 00:00 | TSTempesta tropicale | 100 | 995 |
| 17 ago | 21:00 | TSTempesta tropicale | 100 | 996 |
| 17 ago | 18:00 | TSTempesta tropicale | 95 | 997 |
| 17 ago | 15:00 | TSTempesta tropicale | 95 | 998 |
| 17 ago | 12:00 | TSTempesta tropicale | 95 | 998 |
| 17 ago | 09:00 | TSTempesta tropicale | 90 | 999 |
| 17 ago | 06:00 | TSTempesta tropicale | 85 | 1000 |
| 17 ago | 03:00 | TSTempesta tropicale | 85 | 1001 |
| 17 ago | 00:00 | TSTempesta tropicale | 85 | 1001 |
| 16 ago | 21:00 | TSTempesta tropicale | 80 | 1002 |
| 16 ago | 18:00 | TSTempesta tropicale | 75 | 1002 |
| 16 ago | 15:00 | TSTempesta tropicale | 75 | 1003 |
| 16 ago | 12:00 | TSTempesta tropicale | 75 | 1003 |
| 16 ago | 09:00 | TSTempesta tropicale | 75 | 1003 |
| 16 ago | 06:00 | TSTempesta tropicale | 75 | 1003 |
| 16 ago | 03:00 | TSTempesta tropicale | 75 | 1003 |
| 16 ago | 00:00 | TSTempesta tropicale | 75 | 1003 |
| 15 ago | 21:00 | TSTempesta tropicale | 75 | 1003 |
| 15 ago | 18:00 | TSTempesta tropicale | 75 | 1002 |
| 15 ago | 15:00 | TSTempesta tropicale | 80 | 1002 |
| 15 ago | 12:00 | TSTempesta tropicale | 85 | 1002 |
| 15 ago | 09:00 | TSTempesta tropicale | 85 | 1002 |
| 15 ago | 06:00 | TSTempesta tropicale | 85 | 1001 |
| 15 ago | 03:00 | TSTempesta tropicale | 85 | 1001 |
| 15 ago | 00:00 | TSTempesta tropicale | 85 | 1000 |
| 14 ago | 21:00 | TSTempesta tropicale | 90 | 999 |
| 14 ago | 18:00 | TSTempesta tropicale | 95 | 997 |
| 14 ago | 15:00 | TSTempesta tropicale | 100 | 996 |
| 14 ago | 12:00 | TSTempesta tropicale | 100 | 994 |
| 14 ago | 09:00 | TSTempesta tropicale | 105 | 993 |
| 14 ago | 06:00 | TSTempesta tropicale | 110 | 991 |
| 14 ago | 03:00 | TSTempesta tropicale | 115 | 989 |
| 14 ago | 00:00 | HUragano | 120 | 987 |
| 13 ago | 21:00 | HUragano | 130 | 984 |
| 13 ago | 18:00 | HUragano | 140 | 980 |
| 13 ago | 15:00 | HUragano | 150 | 977 |
| 13 ago | 12:00 | HUragano | 155 | 973 |
| 13 ago | 09:00 | HUragano | 165 | 970 |
| 13 ago | 06:00 | HUragano | 175 | 966 |
| 13 ago | 03:00 | HUragano | 185 | 962 |
| 13 ago | 00:00 | MHUragano maggiore | 195 | 958 |
| 12 ago | 21:00 | HUragano | 200 | 956 |
| 12 ago | 18:00 | MHUragano maggiore | 205 | 954 |
| 12 ago | 15:00 | HUragano | 205 | 952 |
| 12 ago | 12:00 | MHUragano maggiore | 205 | 950 |
| 12 ago | 09:00 | HUragano | 195 | 955 |
| 12 ago | 06:00 | MHUragano maggiore | 185 | 960 |
| 12 ago | 03:00 | HUragano | 175 | 965 |
| 12 ago | 00:00 | HUragano | 165 | 970 |
| 11 ago | 21:00 | HUragano | 165 | 972 |
| 11 ago | 18:00 | HUragano | 155 | 973 |
| 11 ago | 15:00 | HUragano | 155 | 975 |
| 11 ago | 12:00 | HUragano | 150 | 976 |
| 11 ago | 09:00 | HUragano | 145 | 978 |
| 11 ago | 06:00 | HUragano | 140 | 979 |
| 11 ago | 03:00 | HUragano | 135 | 981 |
| 11 ago | 00:00 | HUragano | 130 | 982 |
| 10 ago | 21:00 | HUragano | 125 | 983 |
| 10 ago | 18:00 | HUragano | 120 | 984 |
| 10 ago | 15:00 | HUragano | 120 | 985 |
| 10 ago | 12:00 | HUragano | 120 | 986 |
| 10 ago | 09:00 | HUragano | 120 | 987 |
| 10 ago | 06:00 | HUragano | 120 | 987 |
| 10 ago | 03:00 | HUragano | 120 | 988 |
| 10 ago | 00:00 | HUragano | 120 | 988 |
| 09 ago | 21:00 | TSTempesta tropicale | 115 | 990 |
| 09 ago | 18:00 | TSTempesta tropicale | 110 | 991 |
| 09 ago | 15:00 | TSTempesta tropicale | 105 | 993 |
| 09 ago | 12:00 | TSTempesta tropicale | 100 | 994 |
| 09 ago | 09:00 | TSTempesta tropicale | 105 | 993 |
| 09 ago | 06:00 | TSTempesta tropicale | 110 | 992 |
| 09 ago | 03:00 | TSTempesta tropicale | 110 | 991 |
| 09 ago | 00:00 | TSTempesta tropicale | 110 | 989 |
| 08 ago | 21:00 | TSTempesta tropicale | 115 | 988 |
| 08 ago | 18:00 | HUragano | 120 | 987 |
| 08 ago | 15:00 | HUragano | 125 | 986 |
| 08 ago | 12:00 | HUragano | 130 | 985 |
| 08 ago | 09:00 | HUragano | 130 | 984 |
| 08 ago | 06:00 | HUragano | 130 | 982 |
| 08 ago | 03:00 | HUragano | 135 | 981 |
| 08 ago | 00:00 | HUragano | 140 | 979 |
| 07 ago | 21:00 | HUragano | 145 | 979 |
| 07 ago | 18:00 | HUragano | 150 | 978 |
| 07 ago | 15:00 | HUragano | 150 | 978 |
| 07 ago | 12:00 | HUragano | 150 | 977 |
| 07 ago | 09:00 | HUragano | 150 | 978 |
| 07 ago | 06:00 | HUragano | 150 | 978 |
| 07 ago | 03:00 | HUragano | 145 | 979 |
| 07 ago | 00:00 | HUragano | 140 | 979 |
| 06 ago | 21:00 | HUragano | 140 | 980 |
| 06 ago | 18:00 | HUragano | 140 | 981 |
| 06 ago | 15:00 | HUragano | 135 | 982 |
| 06 ago | 12:00 | HUragano | 130 | 983 |
| 06 ago | 09:00 | HUragano | 125 | 984 |
| 06 ago | 06:00 | HUragano | 120 | 985 |
| 06 ago | 03:00 | HUragano | 120 | 986 |
| 06 ago | 00:00 | HUragano | 120 | 987 |
| 05 ago | 21:00 | TSTempesta tropicale | 110 | 991 |
| 05 ago | 18:00 | TSTempesta tropicale | 100 | 994 |
| 05 ago | 15:00 | TSTempesta tropicale | 95 | 997 |
| 05 ago | 12:00 | TSTempesta tropicale | 85 | 999 |
| 05 ago | 09:00 | TSTempesta tropicale | 85 | 1000 |
| 05 ago | 06:00 | TSTempesta tropicale | 85 | 1000 |
| 05 ago | 03:00 | TSTempesta tropicale | 80 | 1001 |
| 05 ago | 00:00 | TSTempesta tropicale | 75 | 1001 |
| 04 ago | 21:00 | TSTempesta tropicale | 75 | 1002 |
| 04 ago | 18:00 | TSTempesta tropicale | 75 | 1002 |
| 04 ago | 15:00 | TSTempesta tropicale | 70 | 1003 |
| 04 ago | 12:00 | TSTempesta tropicale | 65 | 1003 |
| 04 ago | 09:00 | TSTempesta tropicale | 65 | 1004 |
| 04 ago | 06:00 | TSTempesta tropicale | 65 | 1004 |
| 04 ago | 03:00 | TDDepressione tropicale | 60 | 1005 |
| 04 ago | 00:00 | TDDepressione tropicale | 55 | 1005 |
| 03 ago | 21:00 | TDDepressione tropicale | 50 | 1006 |
| 03 ago | 18:00 | TDDepressione tropicale | 45 | 1007 |
Evoluzione dell’evento
173 Posizioni registrateAnche questi strumenti potrebbero esserti utili
La posizione, l’estensione e lo stato di un evento possono essere aggiornati in momenti diversi a seconda della fonte. Per decisioni importanti, consulta gli enti ufficiali competenti.
I dati degli eventi provengono da NASA EONET e sono integrati con le registrazioni di frane di USGS FDSN. Le analisi e le previsioni delle tempeste possono utilizzare NOAA NHC o JTWC e, quando disponibili, gli archivi storici ATCF di UCAR/NCAR. Le immagini satellitari provengono da NASA Worldview/GIBS (GOES e Himawari) o da EUMETSAT Meteosat, in base alla copertura della mappa.
Fonti: NASA EONET · USGS · NOAA NHC · JTWC · UCAR/NCAR ATCF · NASA Worldview/GIBS · EUMETSAT Meteosat · OpenStreetMap contributors